Airfield :
LOGIN :

Register | Disclaimer

   EN    FR    IT 

 










Legend :    VFR   Marginal VFR   IFR   Intensive IFR   Very Intensive IFR
Visi :
Ceiling :
>= 8 km
>= 3000ft
5 to 8 km
1000 to 3000 ft
1500m to 5 km
500 to 1000 ft
800 to 1500m
200 to 500 ft
< 800m
< 200 ft
Symbols :   Thunderstorms  Fog  Heavy snow  Heavy precipitations  Wind > 20 kt
SIGMETs :     Misc.  Thunderstorms  Icing  Turbulence  Mountain Waves  Volcanic Ashes






- Airport Elevation : 328 ft
- IATA code : PGX


LFBX - Périgueux Bassillac

CURRENT METAR :
  • 220830Z AUTO 23005KT 190V260 3600 DZ BR OVC010 16/15 Q1019

EXPIRED METARs :
  • 220800Z AUTO 23006KT 180V270 4100 BR BKN014 OVC022 16/14 Q1020
  • 220730Z AUTO 23007KT 180V280 9999 BKN018 BKN029 OVC039 16/13 Q1020
  • 220700Z AUTO 21005KT 180V260 9999 FEW021 BKN030 BKN040 16/14 Q1020
  • 220630Z AUTO 21004KT 150V250 9999 FEW020 SCT046 BKN056 16/14 Q1020
  • 220600Z AUTO 22003KT 160V280 9999 BKN023 BKN033 BKN060 16/14 Q1020
  • 220530Z AUTO 24003KT 200V290 9999 FEW012 SCT042 OVC064 16/14 Q1020
  • 220500Z AUTO VRB03KT 9999 BKN018 BKN031 BKN038 15/14 Q1020
  • 220430Z AUTO VRB02KT 9999 BKN022/// BKN031/// OVC082/// //////TCU 15/14 Q1020
  • 220400Z AUTO 00000KT 9000 RA SCT032/// BKN041/// OVC048/// ///TCU 15/14 Q1020

TAF N/A



MET'MAP, your aeronautical weather chart ! - Copyright ORBIFLY December 2007 - Disclaimer

ORBIFLY MET'MAP TEAM :

Programming & Development : Alexandra Zaïnal
Original concept : Baudouin d'Aumeries
Technical & hardware support : Manuel Goepfert
Assistance : Marc-Olivier Méhu




SOURCES & CREDITS :

   NOAA